sensor_id;sensor_type;location;lat;lon;timestamp;P1;durP1;ratioP1;P2;durP2;ratioP2
22656;SDS011;11495;55.610;12.100;2022-09-01T00:01:04;0.40;;;0.40;;
22656;SDS011;11495;55.610;12.100;2022-09-01T00:03:34;1.02;;;0.73;;
22656;SDS011;11495;55.610;12.100;2022-09-01T00:06:01;0.50;;;0.50;;
22656;SDS011;11495;55.610;12.100;2022-09-01T00:08:28;0.50;;;0.50;;
22656;SDS011;11495;55.610;12.100;2022-09-01T00:10:53;0.40;;;0.40;;
22656;SDS011;11495;55.610;12.100;2022-09-01T00:13:20;0.68;;;0.68;;
22656;SDS011;11495;55.610;12.100;2022-09-01T00:15:45;0.65;;;0.60;;
22656;SDS011;11495;55.610;12.100;2022-09-01T00:18:11;0.50;;;0.40;;
22656;SDS011;11495;55.610;12.100;2022-09-01T00:20:37;0.45;;;0.45;;
22656;SDS011;11495;55.610;12.100;2022-09-01T00:23:03;1.08;;;0.40;;
22656;SDS011;11495;55.610;12.100;2022-09-01T00:25:29;0.30;;;0.30;;
22656;SDS011;11495;55.610;12.100;2022-09-01T00:27:54;0.40;;;0.40;;
22656;SDS011;11495;55.610;12.100;2022-09-01T00:30:24;0.43;;;0.30;;
22656;SDS011;11495;55.610;12.100;2022-09-01T00:32:49;1.65;;;0.50;;
22656;SDS011;11495;55.610;12.100;2022-09-01T00:35:16;0.22;;;0.22;;
22656;SDS011;11495;55.610;12.100;2022-09-01T00:37:43;0.82;;;0.60;;
22656;SDS011;11495;55.610;12.100;2022-09-01T00:40:09;0.43;;;0.43;;
22656;SDS011;11495;55.610;12.100;2022-09-01T00:42:37;0.50;;;0.45;;
22656;SDS011;11495;55.610;12.100;2022-09-01T00:45:07;0.40;;;0.40;;
22656;SDS011;11495;55.610;12.100;2022-09-01T00:47:36;0.43;;;0.40;;
22656;SDS011;11495;55.610;12.100;2022-09-01T00:50:03;0.75;;;0.50;;
22656;SDS011;11495;55.610;12.100;2022-09-01T00:52:34;0.95;;;0.40;;
22656;SDS011;11495;55.610;12.100;2022-09-01T00:55:14;1.00;;;0.60;;
22656;SDS011;11495;55.610;12.100;2022-09-01T00:57:42;0.73;;;0.30;;
22656;SDS011;11495;55.610;12.100;2022-09-01T01:00:20;0.65;;;0.65;;
22656;SDS011;11495;55.610;12.100;2022-09-01T01:02:51;1.05;;;0.73;;
22656;SDS011;11495;55.610;12.100;2022-09-01T01:05:20;0.40;;;0.40;;
22656;SDS011;11495;55.610;12.100;2022-09-01T01:07:50;0.52;;;0.50;;
22656;SDS011;11495;55.610;12.100;2022-09-01T01:10:16;0.98;;;0.52;;
22656;SDS011;11495;55.610;12.100;2022-09-01T01:12:43;1.48;;;0.60;;
22656;SDS011;11495;55.610;12.100;2022-09-01T01:15:12;0.50;;;0.50;;
22656;SDS011;11495;55.610;12.100;2022-09-01T01:17:42;0.40;;;0.40;;
22656;SDS011;11495;55.610;12.100;2022-09-01T01:20:07;1.55;;;0.40;;
22656;SDS011;11495;55.610;12.100;2022-09-01T01:26:04;0.40;;;0.40;;
22656;SDS011;11495;55.610;12.100;2022-09-01T01:28:42;0.20;;;0.20;;
22656;SDS011;11495;55.610;12.100;2022-09-01T01:31:16;0.32;;;0.32;;
22656;SDS011;11495;55.610;12.100;2022-09-01T01:33:52;0.20;;;0.20;;
22656;SDS011;11495;55.610;12.100;2022-09-01T01:36:23;0.68;;;0.30;;
22656;SDS011;11495;55.610;12.100;2022-09-01T01:38:57;0.95;;;0.55;;
22656;SDS011;11495;55.610;12.100;2022-09-01T01:41:26;0.40;;;0.40;;
22656;SDS011;11495;55.610;12.100;2022-09-01T01:43:54;0.82;;;0.70;;
22656;SDS011;11495;55.610;12.100;2022-09-01T01:46:22;0.60;;;0.60;;
22656;SDS011;11495;55.610;12.100;2022-09-01T01:48:51;0.60;;;0.43;;
22656;SDS011;11495;55.610;12.100;2022-09-01T01:51:18;0.57;;;0.57;;
22656;SDS011;11495;55.610;12.100;2022-09-01T01:53:48;0.37;;;0.37;;
22656;SDS011;11495;55.610;12.100;2022-09-01T01:56:16;1.40;;;0.47;;
22656;SDS011;11495;55.610;12.100;2022-09-01T01:58:43;0.40;;;0.40;;
22656;SDS011;11495;55.610;12.100;2022-09-01T02:01:09;0.47;;;0.40;;
22656;SDS011;11495;55.610;12.100;2022-09-01T02:03:36;0.40;;;0.40;;
22656;SDS011;11495;55.610;12.100;2022-09-01T02:06:06;0.30;;;0.30;;
22656;SDS011;11495;55.610;12.100;2022-09-01T02:11:03;0.35;;;0.35;;
22656;SDS011;11495;55.610;12.100;2022-09-01T02:13:29;0.50;;;0.40;;
22656;SDS011;11495;55.610;12.100;2022-09-01T02:15:56;0.50;;;0.50;;
22656;SDS011;11495;55.610;12.100;2022-09-01T02:18:25;0.37;;;0.37;;
22656;SDS011;11495;55.610;12.100;2022-09-01T02:20:54;0.77;;;0.50;;
22656;SDS011;11495;55.610;12.100;2022-09-01T02:23:21;0.40;;;0.40;;
22656;SDS011;11495;55.610;12.100;2022-09-01T02:25:51;0.50;;;0.50;;
22656;SDS011;11495;55.610;12.100;2022-09-01T02:28:19;0.40;;;0.30;;
22656;SDS011;11495;55.610;12.100;2022-09-01T02:30:49;0.43;;;0.43;;
22656;SDS011;11495;55.610;12.100;2022-09-01T02:33:19;0.40;;;0.40;;
22656;SDS011;11495;55.610;12.100;2022-09-01T02:35:57;0.50;;;0.37;;
22656;SDS011;11495;55.610;12.100;2022-09-01T02:38:28;0.40;;;0.40;;
22656;SDS011;11495;55.610;12.100;2022-09-01T02:40:58;1.48;;;0.20;;
22656;SDS011;11495;55.610;12.100;2022-09-01T02:43:25;0.30;;;0.30;;
22656;SDS011;11495;55.610;12.100;2022-09-01T02:45:53;0.30;;;0.30;;
22656;SDS011;11495;55.610;12.100;2022-09-01T02:50:56;0.85;;;0.20;;
22656;SDS011;11495;55.610;12.100;2022-09-01T02:53:23;0.47;;;0.32;;
22656;SDS011;11495;55.610;12.100;2022-09-01T02:55:49;2.40;;;0.75;;
22656;SDS011;11495;55.610;12.100;2022-09-01T02:58:15;0.30;;;0.30;;
22656;SDS011;11495;55.610;12.100;2022-09-01T03:00:44;0.10;;;0.10;;
22656;SDS011;11495;55.610;12.100;2022-09-01T03:03:16;0.50;;;0.30;;
22656;SDS011;11495;55.610;12.100;2022-09-01T03:05:44;0.68;;;0.40;;
22656;SDS011;11495;55.610;12.100;2022-09-01T03:08:10;0.30;;;0.30;;
22656;SDS011;11495;55.610;12.100;2022-09-01T03:10:40;0.40;;;0.40;;
22656;SDS011;11495;55.610;12.100;2022-09-01T03:15:42;0.40;;;0.40;;
22656;SDS011;11495;55.610;12.100;2022-09-01T03:18:08;0.50;;;0.40;;
22656;SDS011;11495;55.610;12.100;2022-09-01T03:20:39;0.30;;;0.30;;
22656;SDS011;11495;55.610;12.100;2022-09-01T03:23:12;0.50;;;0.30;;
22656;SDS011;11495;55.610;12.100;2022-09-01T03:25:41;0.30;;;0.30;;
22656;SDS011;11495;55.610;12.100;2022-09-01T03:28:10;0.30;;;0.30;;
22656;SDS011;11495;55.610;12.100;2022-09-01T03:30:40;0.20;;;0.20;;
22656;SDS011;11495;55.610;12.100;2022-09-01T03:33:10;0.40;;;0.40;;
22656;SDS011;11495;55.610;12.100;2022-09-01T03:35:35;0.30;;;0.30;;
22656;SDS011;11495;55.610;12.100;2022-09-01T03:38:01;0.25;;;0.20;;
22656;SDS011;11495;55.610;12.100;2022-09-01T03:40:34;0.20;;;0.20;;
22656;SDS011;11495;55.610;12.100;2022-09-01T03:43:05;0.75;;;0.45;;
22656;SDS011;11495;55.610;12.100;2022-09-01T03:45:38;1.10;;;0.40;;
22656;SDS011;11495;55.610;12.100;2022-09-01T03:48:05;0.30;;;0.30;;
22656;SDS011;11495;55.610;12.100;2022-09-01T03:50:37;1.10;;;0.45;;
22656;SDS011;11495;55.610;12.100;2022-09-01T03:53:10;1.65;;;0.55;;
22656;SDS011;11495;55.610;12.100;2022-09-01T03:55:38;0.43;;;0.30;;
22656;SDS011;11495;55.610;12.100;2022-09-01T03:58:06;0.28;;;0.28;;
22656;SDS011;11495;55.610;12.100;2022-09-01T04:00:35;0.68;;;0.30;;
22656;SDS011;11495;55.610;12.100;2022-09-01T04:03:03;1.27;;;0.52;;
22656;SDS011;11495;55.610;12.100;2022-09-01T04:05:32;0.85;;;0.57;;
22656;SDS011;11495;55.610;12.100;2022-09-01T04:07:59;0.50;;;0.50;;
22656;SDS011;11495;55.610;12.100;2022-09-01T04:10:28;0.30;;;0.30;;
22656;SDS011;11495;55.610;12.100;2022-09-01T04:12:56;0.60;;;0.50;;
22656;SDS011;11495;55.610;12.100;2022-09-01T04:15:23;2.35;;;0.70;;
22656;SDS011;11495;55.610;12.100;2022-09-01T04:17:50;2.30;;;0.40;;
22656;SDS011;11495;55.610;12.100;2022-09-01T04:20:33;1.10;;;0.40;;
22656;SDS011;11495;55.610;12.100;2022-09-01T04:23:12;0.32;;;0.32;;
22656;SDS011;11495;55.610;12.100;2022-09-01T04:25:41;0.73;;;0.40;;
22656;SDS011;11495;55.610;12.100;2022-09-01T04:28:07;2.40;;;0.30;;
22656;SDS011;11495;55.610;12.100;2022-09-01T04:30:41;0.57;;;0.45;;
22656;SDS011;11495;55.610;12.100;2022-09-01T04:33:07;0.47;;;0.30;;
22656;SDS011;11495;55.610;12.100;2022-09-01T04:35:40;1.33;;;0.60;;
22656;SDS011;11495;55.610;12.100;2022-09-01T04:38:05;0.50;;;0.40;;
22656;SDS011;11495;55.610;12.100;2022-09-01T04:40:36;0.80;;;0.50;;
22656;SDS011;11495;55.610;12.100;2022-09-01T04:43:03;0.30;;;0.30;;
22656;SDS011;11495;55.610;12.100;2022-09-01T04:45:30;1.17;;;0.50;;
22656;SDS011;11495;55.610;12.100;2022-09-01T04:47:59;0.40;;;0.40;;
22656;SDS011;11495;55.610;12.100;2022-09-01T04:50:24;3.70;;;0.62;;
22656;SDS011;11495;55.610;12.100;2022-09-01T04:52:56;1.33;;;0.88;;
22656;SDS011;11495;55.610;12.100;2022-09-01T04:55:23;1.30;;;0.37;;
22656;SDS011;11495;55.610;12.100;2022-09-01T04:57:50;1.17;;;0.75;;
22656;SDS011;11495;55.610;12.100;2022-09-01T05:00:20;1.02;;;0.55;;
22656;SDS011;11495;55.610;12.100;2022-09-01T05:02:47;3.08;;;0.85;;
22656;SDS011;11495;55.610;12.100;2022-09-01T05:05:21;2.05;;;0.60;;
22656;SDS011;11495;55.610;12.100;2022-09-01T05:07:47;3.55;;;0.70;;
22656;SDS011;11495;55.610;12.100;2022-09-01T05:10:20;1.20;;;0.88;;
22656;SDS011;11495;55.610;12.100;2022-09-01T05:12:48;1.23;;;0.60;;
22656;SDS011;11495;55.610;12.100;2022-09-01T05:15:13;2.25;;;1.00;;
22656;SDS011;11495;55.610;12.100;2022-09-01T05:17:41;3.17;;;1.42;;
22656;SDS011;11495;55.610;12.100;2022-09-01T05:20:08;3.58;;;2.00;;
22656;SDS011;11495;55.610;12.100;2022-09-01T05:22:36;2.67;;;1.40;;
22656;SDS011;11495;55.610;12.100;2022-09-01T05:25:05;2.00;;;1.33;;
22656;SDS011;11495;55.610;12.100;2022-09-01T05:27:39;3.60;;;1.58;;
22656;SDS011;11495;55.610;12.100;2022-09-01T05:30:06;1.33;;;1.17;;
22656;SDS011;11495;55.610;12.100;2022-09-01T05:32:35;1.60;;;1.02;;
22656;SDS011;11495;55.610;12.100;2022-09-01T05:35:03;2.72;;;0.88;;
22656;SDS011;11495;55.610;12.100;2022-09-01T05:37:33;2.10;;;0.43;;
22656;SDS011;11495;55.610;12.100;2022-09-01T05:40:01;0.95;;;0.75;;
22656;SDS011;11495;55.610;12.100;2022-09-01T05:42:29;1.37;;;0.68;;
22656;SDS011;11495;55.610;12.100;2022-09-01T05:44:56;3.60;;;0.73;;
22656;SDS011;11495;55.610;12.100;2022-09-01T05:47:22;1.00;;;0.60;;
22656;SDS011;11495;55.610;12.100;2022-09-01T05:49:48;1.95;;;0.68;;
22656;SDS011;11495;55.610;12.100;2022-09-01T05:52:14;1.45;;;0.80;;
22656;SDS011;11495;55.610;12.100;2022-09-01T05:54:39;0.73;;;0.50;;
22656;SDS011;11495;55.610;12.100;2022-09-01T05:57:05;1.80;;;0.73;;
22656;SDS011;11495;55.610;12.100;2022-09-01T05:59:31;1.67;;;0.70;;
22656;SDS011;11495;55.610;12.100;2022-09-01T06:01:57;0.52;;;0.40;;
22656;SDS011;11495;55.610;12.100;2022-09-01T06:04:23;1.08;;;0.75;;
22656;SDS011;11495;55.610;12.100;2022-09-01T06:06:54;0.57;;;0.47;;
22656;SDS011;11495;55.610;12.100;2022-09-01T06:09:21;4.50;;;0.93;;
22656;SDS011;11495;55.610;12.100;2022-09-01T06:11:50;2.92;;;0.70;;
22656;SDS011;11495;55.610;12.100;2022-09-01T06:14:16;0.73;;;0.73;;
22656;SDS011;11495;55.610;12.100;2022-09-01T06:16:42;0.65;;;0.55;;
22656;SDS011;11495;55.610;12.100;2022-09-01T06:19:09;0.90;;;0.62;;
22656;SDS011;11495;55.610;12.100;2022-09-01T06:21:34;1.45;;;0.60;;
22656;SDS011;11495;55.610;12.100;2022-09-01T06:24:02;0.57;;;0.52;;
22656;SDS011;11495;55.610;12.100;2022-09-01T06:26:31;0.85;;;0.50;;
22656;SDS011;11495;55.610;12.100;2022-09-01T06:28:59;1.05;;;0.50;;
22656;SDS011;11495;55.610;12.100;2022-09-01T06:31:29;4.00;;;1.00;;
22656;SDS011;11495;55.610;12.100;2022-09-01T06:34:02;2.80;;;0.60;;
22656;SDS011;11495;55.610;12.100;2022-09-01T06:36:28;1.95;;;0.30;;
22656;SDS011;11495;55.610;12.100;2022-09-01T06:38:57;0.82;;;0.32;;
22656;SDS011;11495;55.610;12.100;2022-09-01T06:41:26;0.45;;;0.40;;
22656;SDS011;11495;55.610;12.100;2022-09-01T06:43:52;1.80;;;0.77;;
22656;SDS011;11495;55.610;12.100;2022-09-01T06:46:19;0.30;;;0.30;;
22656;SDS011;11495;55.610;12.100;2022-09-01T06:48:47;1.75;;;0.50;;
22656;SDS011;11495;55.610;12.100;2022-09-01T06:51:16;2.08;;;0.70;;
22656;SDS011;11495;55.610;12.100;2022-09-01T06:53:44;1.75;;;0.43;;
22656;SDS011;11495;55.610;12.100;2022-09-01T06:56:17;0.40;;;0.37;;
22656;SDS011;11495;55.610;12.100;2022-09-01T06:58:44;0.40;;;0.40;;
22656;SDS011;11495;55.610;12.100;2022-09-01T07:01:15;0.30;;;0.30;;
22656;SDS011;11495;55.610;12.100;2022-09-01T07:03:44;1.20;;;0.35;;
22656;SDS011;11495;55.610;12.100;2022-09-01T07:06:12;0.30;;;0.30;;
22656;SDS011;11495;55.610;12.100;2022-09-01T07:08:39;0.52;;;0.40;;
22656;SDS011;11495;55.610;12.100;2022-09-01T07:11:15;0.20;;;0.20;;
22656;SDS011;11495;55.610;12.100;2022-09-01T07:13:41;0.52;;;0.20;;
22656;SDS011;11495;55.610;12.100;2022-09-01T07:16:15;2.40;;;0.40;;
22656;SDS011;11495;55.610;12.100;2022-09-01T07:18:49;0.52;;;0.40;;
22656;SDS011;11495;55.610;12.100;2022-09-01T07:21:17;0.30;;;0.30;;
22656;SDS011;11495;55.610;12.100;2022-09-01T07:23:43;0.45;;;0.40;;
22656;SDS011;11495;55.610;12.100;2022-09-01T07:26:09;0.37;;;0.30;;
22656;SDS011;11495;55.610;12.100;2022-09-01T07:28:36;0.70;;;0.70;;
22656;SDS011;11495;55.610;12.100;2022-09-01T07:31:01;0.77;;;0.60;;
22656;SDS011;11495;55.610;12.100;2022-09-01T07:33:29;2.08;;;0.40;;
22656;SDS011;11495;55.610;12.100;2022-09-01T07:35:56;0.40;;;0.40;;
22656;SDS011;11495;55.610;12.100;2022-09-01T07:38:25;1.25;;;0.28;;
22656;SDS011;11495;55.610;12.100;2022-09-01T07:40:52;0.30;;;0.30;;
22656;SDS011;11495;55.610;12.100;2022-09-01T07:43:22;0.50;;;0.50;;
22656;SDS011;11495;55.610;12.100;2022-09-01T07:45:51;0.55;;;0.35;;
22656;SDS011;11495;55.610;12.100;2022-09-01T07:48:20;0.30;;;0.30;;
22656;SDS011;11495;55.610;12.100;2022-09-01T07:50:48;0.45;;;0.32;;
22656;SDS011;11495;55.610;12.100;2022-09-01T07:53:17;1.40;;;0.40;;
22656;SDS011;11495;55.610;12.100;2022-09-01T07:55:48;0.32;;;0.32;;
22656;SDS011;11495;55.610;12.100;2022-09-01T07:58:16;0.60;;;0.60;;
22656;SDS011;11495;55.610;12.100;2022-09-01T08:00:42;0.68;;;0.20;;
22656;SDS011;11495;55.610;12.100;2022-09-01T08:03:10;0.45;;;0.45;;
22656;SDS011;11495;55.610;12.100;2022-09-01T08:05:36;0.50;;;0.50;;
22656;SDS011;11495;55.610;12.100;2022-09-01T08:08:01;0.30;;;0.30;;
22656;SDS011;11495;55.610;12.100;2022-09-01T08:10:27;0.30;;;0.30;;
22656;SDS011;11495;55.610;12.100;2022-09-01T08:12:52;0.30;;;0.30;;
22656;SDS011;11495;55.610;12.100;2022-09-01T08:15:20;0.73;;;0.30;;
22656;SDS011;11495;55.610;12.100;2022-09-01T08:17:46;0.50;;;0.50;;
22656;SDS011;11495;55.610;12.100;2022-09-01T08:20:15;0.30;;;0.25;;
22656;SDS011;11495;55.610;12.100;2022-09-01T08:22:40;0.50;;;0.50;;
22656;SDS011;11495;55.610;12.100;2022-09-01T08:25:06;1.75;;;0.30;;
22656;SDS011;11495;55.610;12.100;2022-09-01T08:27:34;1.25;;;0.37;;
22656;SDS011;11495;55.610;12.100;2022-09-01T08:30:03;0.30;;;0.30;;
22656;SDS011;11495;55.610;12.100;2022-09-01T08:32:34;0.40;;;0.28;;
22656;SDS011;11495;55.610;12.100;2022-09-01T08:35:01;0.30;;;0.30;;
22656;SDS011;11495;55.610;12.100;2022-09-01T08:37:29;0.30;;;0.30;;
22656;SDS011;11495;55.610;12.100;2022-09-01T08:39:55;0.62;;;0.30;;
22656;SDS011;11495;55.610;12.100;2022-09-01T08:42:51;0.30;;;0.30;;
22656;SDS011;11495;55.610;12.100;2022-09-01T08:45:27;0.52;;;0.40;;
22656;SDS011;11495;55.610;12.100;2022-09-01T08:48:00;0.62;;;0.37;;
22656;SDS011;11495;55.610;12.100;2022-09-01T08:50:30;0.22;;;0.22;;
22656;SDS011;11495;55.610;12.100;2022-09-01T08:53:02;0.30;;;0.30;;
22656;SDS011;11495;55.610;12.100;2022-09-01T08:55:48;0.20;;;0.20;;
22656;SDS011;11495;55.610;12.100;2022-09-01T08:58:17;0.30;;;0.30;;
22656;SDS011;11495;55.610;12.100;2022-09-01T09:00:44;1.27;;;0.35;;
22656;SDS011;11495;55.610;12.100;2022-09-01T09:11:00;0.52;;;0.45;;
22656;SDS011;11495;55.610;12.100;2022-09-01T09:13:48;0.60;;;0.40;;
22656;SDS011;11495;55.610;12.100;2022-09-01T09:19:15;1.50;;;0.22;;
22656;SDS011;11495;55.610;12.100;2022-09-01T09:21:53;0.20;;;0.20;;
22656;SDS011;11495;55.610;12.100;2022-09-01T09:27:32;0.30;;;0.30;;
22656;SDS011;11495;55.610;12.100;2022-09-01T09:30:10;2.47;;;0.32;;
22656;SDS011;11495;55.610;12.100;2022-09-01T09:32:51;0.52;;;0.40;;
22656;SDS011;11495;55.610;12.100;2022-09-01T09:37:45;0.55;;;0.40;;
22656;SDS011;11495;55.610;12.100;2022-09-01T09:40:23;0.40;;;0.40;;
22656;SDS011;11495;55.610;12.100;2022-09-01T09:45:29;0.30;;;0.30;;
22656;SDS011;11495;55.610;12.100;2022-09-01T09:47:58;0.30;;;0.30;;
22656;SDS011;11495;55.610;12.100;2022-09-01T09:50:28;0.20;;;0.20;;
22656;SDS011;11495;55.610;12.100;2022-09-01T09:53:13;0.30;;;0.30;;
22656;SDS011;11495;55.610;12.100;2022-09-01T09:55:59;0.55;;;0.40;;
22656;SDS011;11495;55.610;12.100;2022-09-01T09:58:27;0.82;;;0.40;;
22656;SDS011;11495;55.610;12.100;2022-09-01T10:01:44;0.30;;;0.30;;
22656;SDS011;11495;55.610;12.100;2022-09-01T10:03:51;0.32;;;0.30;;
22656;SDS011;11495;55.610;12.100;2022-09-01T10:06:35;0.40;;;0.40;;
22656;SDS011;11495;55.610;12.100;2022-09-01T10:09:32;0.35;;;0.35;;
22656;SDS011;11495;55.610;12.100;2022-09-01T10:11:51;0.30;;;0.30;;
22656;SDS011;11495;55.610;12.100;2022-09-01T10:14:22;1.52;;;0.40;;
22656;SDS011;11495;55.610;12.100;2022-09-01T10:16:55;0.25;;;0.25;;
22656;SDS011;11495;55.610;12.100;2022-09-01T10:21:57;0.20;;;0.20;;
22656;SDS011;11495;55.610;12.100;2022-09-01T10:24:32;0.40;;;0.40;;
22656;SDS011;11495;55.610;12.100;2022-09-01T10:27:01;0.70;;;0.40;;
22656;SDS011;11495;55.610;12.100;2022-09-01T10:29:38;0.77;;;0.40;;
22656;SDS011;11495;55.610;12.100;2022-09-01T10:32:09;0.40;;;0.40;;
22656;SDS011;11495;55.610;12.100;2022-09-01T10:34:39;0.40;;;0.32;;
22656;SDS011;11495;55.610;12.100;2022-09-01T10:37:06;0.28;;;0.28;;
22656;SDS011;11495;55.610;12.100;2022-09-01T10:39:32;0.52;;;0.47;;
22656;SDS011;11495;55.610;12.100;2022-09-01T10:41:58;0.35;;;0.30;;
22656;SDS011;11495;55.610;12.100;2022-09-01T10:47:28;0.47;;;0.40;;
22656;SDS011;11495;55.610;12.100;2022-09-01T10:50:05;1.33;;;0.95;;
22656;SDS011;11495;55.610;12.100;2022-09-01T10:55:21;0.30;;;0.30;;
22656;SDS011;11495;55.610;12.100;2022-09-01T10:57:52;0.47;;;0.40;;
22656;SDS011;11495;55.610;12.100;2022-09-01T11:00:43;0.40;;;0.40;;
22656;SDS011;11495;55.610;12.100;2022-09-01T11:13:29;0.65;;;0.57;;
22656;SDS011;11495;55.610;12.100;2022-09-01T11:27:10;0.30;;;0.30;;
22656;SDS011;11495;55.610;12.100;2022-09-01T11:29:56;0.37;;;0.37;;
22656;SDS011;11495;55.610;12.100;2022-09-01T11:32:26;0.30;;;0.30;;
22656;SDS011;11495;55.610;12.100;2022-09-01T11:34:58;0.40;;;0.40;;
22656;SDS011;11495;55.610;12.100;2022-09-01T11:37:27;1.02;;;0.40;;
22656;SDS011;11495;55.610;12.100;2022-09-01T11:39:54;0.50;;;0.37;;
22656;SDS011;11495;55.610;12.100;2022-09-01T11:42:28;0.50;;;0.50;;
22656;SDS011;11495;55.610;12.100;2022-09-01T11:45:02;1.20;;;0.40;;
22656;SDS011;11495;55.610;12.100;2022-09-01T11:47:47;0.30;;;0.30;;
22656;SDS011;11495;55.610;12.100;2022-09-01T11:50:21;1.10;;;0.47;;
22656;SDS011;11495;55.610;12.100;2022-09-01T11:55:27;0.37;;;0.37;;
22656;SDS011;11495;55.610;12.100;2022-09-01T11:57:57;0.30;;;0.30;;
22656;SDS011;11495;55.610;12.100;2022-09-01T12:00:31;0.30;;;0.30;;
22656;SDS011;11495;55.610;12.100;2022-09-01T12:03:02;0.40;;;0.40;;
22656;SDS011;11495;55.610;12.100;2022-09-01T12:05:32;0.40;;;0.40;;
22656;SDS011;11495;55.610;12.100;2022-09-01T12:08:03;0.88;;;0.47;;
22656;SDS011;11495;55.610;12.100;2022-09-01T12:10:38;0.40;;;0.40;;
22656;SDS011;11495;55.610;12.100;2022-09-01T12:13:11;0.32;;;0.32;;
22656;SDS011;11495;55.610;12.100;2022-09-01T12:15:51;0.90;;;0.45;;
22656;SDS011;11495;55.610;12.100;2022-09-01T12:18:23;0.50;;;0.50;;
22656;SDS011;11495;55.610;12.100;2022-09-01T12:20:52;0.60;;;0.60;;
22656;SDS011;11495;55.610;12.100;2022-09-01T12:23:23;0.95;;;0.70;;
22656;SDS011;11495;55.610;12.100;2022-09-01T12:25:54;0.50;;;0.50;;
22656;SDS011;11495;55.610;12.100;2022-09-01T12:28:22;0.62;;;0.60;;
22656;SDS011;11495;55.610;12.100;2022-09-01T12:30:50;0.40;;;0.40;;
22656;SDS011;11495;55.610;12.100;2022-09-01T12:33:17;0.40;;;0.40;;
22656;SDS011;11495;55.610;12.100;2022-09-01T12:35:44;0.60;;;0.50;;
22656;SDS011;11495;55.610;12.100;2022-09-01T12:40:49;0.40;;;0.40;;
22656;SDS011;11495;55.610;12.100;2022-09-01T12:43:28;0.50;;;0.50;;
22656;SDS011;11495;55.610;12.100;2022-09-01T12:45:56;0.50;;;0.50;;
22656;SDS011;11495;55.610;12.100;2022-09-01T12:48:29;0.50;;;0.50;;
22656;SDS011;11495;55.610;12.100;2022-09-01T12:51:21;0.47;;;0.47;;
22656;SDS011;11495;55.610;12.100;2022-09-01T12:53:56;0.32;;;0.32;;
22656;SDS011;11495;55.610;12.100;2022-09-01T12:56:33;0.50;;;0.50;;
22656;SDS011;11495;55.610;12.100;2022-09-01T13:01:54;0.43;;;0.43;;
22656;SDS011;11495;55.610;12.100;2022-09-01T13:06:46;0.40;;;0.40;;
22656;SDS011;11495;55.610;12.100;2022-09-01T13:09:15;0.65;;;0.43;;
22656;SDS011;11495;55.610;12.100;2022-09-01T13:11:41;2.12;;;0.70;;
22656;SDS011;11495;55.610;12.100;2022-09-01T13:14:07;0.75;;;0.62;;
22656;SDS011;11495;55.610;12.100;2022-09-01T13:16:34;3.78;;;0.85;;
22656;SDS011;11495;55.610;12.100;2022-09-01T13:19:01;0.50;;;0.50;;
22656;SDS011;11495;55.610;12.100;2022-09-01T13:21:27;1.80;;;0.52;;
22656;SDS011;11495;55.610;12.100;2022-09-01T13:23:54;0.40;;;0.40;;
22656;SDS011;11495;55.610;12.100;2022-09-01T13:26:19;1.08;;;0.50;;
22656;SDS011;11495;55.610;12.100;2022-09-01T13:28:45;1.48;;;0.45;;
22656;SDS011;11495;55.610;12.100;2022-09-01T13:31:10;0.68;;;0.50;;
22656;SDS011;11495;55.610;12.100;2022-09-01T13:33:37;0.65;;;0.60;;
22656;SDS011;11495;55.610;12.100;2022-09-01T13:36:02;0.40;;;0.40;;
22656;SDS011;11495;55.610;12.100;2022-09-01T13:38:29;0.85;;;0.75;;
22656;SDS011;11495;55.610;12.100;2022-09-01T13:40:58;1.12;;;0.50;;
22656;SDS011;11495;55.610;12.100;2022-09-01T13:43:28;0.68;;;0.50;;
22656;SDS011;11495;55.610;12.100;2022-09-01T13:45:55;0.50;;;0.50;;
22656;SDS011;11495;55.610;12.100;2022-09-01T13:48:21;0.70;;;0.70;;
22656;SDS011;11495;55.610;12.100;2022-09-01T13:50:48;0.70;;;0.70;;
22656;SDS011;11495;55.610;12.100;2022-09-01T13:53:15;0.85;;;0.68;;
22656;SDS011;11495;55.610;12.100;2022-09-01T13:55:41;0.60;;;0.60;;
22656;SDS011;11495;55.610;12.100;2022-09-01T13:58:07;1.85;;;0.50;;
22656;SDS011;11495;55.610;12.100;2022-09-01T14:00:35;0.37;;;0.35;;
22656;SDS011;11495;55.610;12.100;2022-09-01T14:03:08;0.50;;;0.50;;
22656;SDS011;11495;55.610;12.100;2022-09-01T14:05:37;0.50;;;0.50;;
22656;SDS011;11495;55.610;12.100;2022-09-01T14:08:06;1.83;;;0.90;;
22656;SDS011;11495;55.610;12.100;2022-09-01T14:10:36;0.40;;;0.40;;
22656;SDS011;11495;55.610;12.100;2022-09-01T14:13:04;0.40;;;0.40;;
22656;SDS011;11495;55.610;12.100;2022-09-01T14:15:29;0.50;;;0.50;;
22656;SDS011;11495;55.610;12.100;2022-09-01T14:17:55;0.50;;;0.50;;
22656;SDS011;11495;55.610;12.100;2022-09-01T14:20:30;0.45;;;0.45;;
22656;SDS011;11495;55.610;12.100;2022-09-01T14:23:00;0.62;;;0.60;;
22656;SDS011;11495;55.610;12.100;2022-09-01T14:25:28;2.25;;;0.85;;
22656;SDS011;11495;55.610;12.100;2022-09-01T14:27:54;0.68;;;0.60;;
22656;SDS011;11495;55.610;12.100;2022-09-01T14:30:24;0.60;;;0.47;;
22656;SDS011;11495;55.610;12.100;2022-09-01T14:32:52;0.55;;;0.50;;
22656;SDS011;11495;55.610;12.100;2022-09-01T14:35:21;1.05;;;0.50;;
22656;SDS011;11495;55.610;12.100;2022-09-01T14:37:49;0.77;;;0.60;;
22656;SDS011;11495;55.610;12.100;2022-09-01T14:40:15;0.65;;;0.50;;
22656;SDS011;11495;55.610;12.100;2022-09-01T14:42:46;2.28;;;0.62;;
22656;SDS011;11495;55.610;12.100;2022-09-01T14:45:23;0.95;;;0.70;;
22656;SDS011;11495;55.610;12.100;2022-09-01T14:47:52;0.90;;;0.70;;
22656;SDS011;11495;55.610;12.100;2022-09-01T14:50:19;0.60;;;0.55;;
22656;SDS011;11495;55.610;12.100;2022-09-01T14:52:46;0.50;;;0.50;;
22656;SDS011;11495;55.610;12.100;2022-09-01T14:55:12;1.12;;;0.73;;
22656;SDS011;11495;55.610;12.100;2022-09-01T14:57:38;0.70;;;0.70;;
22656;SDS011;11495;55.610;12.100;2022-09-01T15:00:05;1.33;;;0.50;;
22656;SDS011;11495;55.610;12.100;2022-09-01T15:02:36;2.05;;;0.73;;
22656;SDS011;11495;55.610;12.100;2022-09-01T15:05:04;0.60;;;0.60;;
22656;SDS011;11495;55.610;12.100;2022-09-01T15:07:30;0.62;;;0.40;;
22656;SDS011;11495;55.610;12.100;2022-09-01T15:09:55;1.17;;;0.50;;
22656;SDS011;11495;55.610;12.100;2022-09-01T15:12:24;0.70;;;0.70;;
22656;SDS011;11495;55.610;12.100;2022-09-01T15:14:56;0.40;;;0.40;;
22656;SDS011;11495;55.610;12.100;2022-09-01T15:17:23;0.40;;;0.40;;
22656;SDS011;11495;55.610;12.100;2022-09-01T15:19:49;2.12;;;0.80;;
22656;SDS011;11495;55.610;12.100;2022-09-01T15:22:14;1.20;;;0.60;;
22656;SDS011;11495;55.610;12.100;2022-09-01T15:24:40;0.60;;;0.60;;
22656;SDS011;11495;55.610;12.100;2022-09-01T15:27:06;0.70;;;0.60;;
22656;SDS011;11495;55.610;12.100;2022-09-01T15:29:32;0.60;;;0.60;;
22656;SDS011;11495;55.610;12.100;2022-09-01T15:32:02;0.62;;;0.62;;
22656;SDS011;11495;55.610;12.100;2022-09-01T15:34:27;2.15;;;0.65;;
22656;SDS011;11495;55.610;12.100;2022-09-01T15:36:53;0.50;;;0.50;;
22656;SDS011;11495;55.610;12.100;2022-09-01T15:39:18;0.60;;;0.50;;
22656;SDS011;11495;55.610;12.100;2022-09-01T15:41:43;0.60;;;0.50;;
22656;SDS011;11495;55.610;12.100;2022-09-01T15:44:09;0.65;;;0.60;;
22656;SDS011;11495;55.610;12.100;2022-09-01T15:46:35;1.05;;;0.70;;
22656;SDS011;11495;55.610;12.100;2022-09-01T15:49:03;0.77;;;0.45;;
22656;SDS011;11495;55.610;12.100;2022-09-01T15:51:32;0.68;;;0.68;;
22656;SDS011;11495;55.610;12.100;2022-09-01T15:56:33;0.52;;;0.52;;
22656;SDS011;11495;55.610;12.100;2022-09-01T15:58:59;0.62;;;0.62;;